sensor_id;sensor_type;location;lat;lon;timestamp;temperature;humidity
22122;DHT22;11227;53.046;10.512;2022-12-07T00:02:52;15.20;99.90
22122;DHT22;11227;53.046;10.512;2022-12-07T00:06:54;15.20;99.90
22122;DHT22;11227;53.046;10.512;2022-12-07T00:11:03;15.20;99.90
22122;DHT22;11227;53.046;10.512;2022-12-07T00:15:06;15.20;99.90
22122;DHT22;11227;53.046;10.512;2022-12-07T00:19:10;15.20;99.90
22122;DHT22;11227;53.046;10.512;2022-12-07T00:23:12;15.20;99.90
22122;DHT22;11227;53.046;10.512;2022-12-07T00:27:13;15.20;99.90
22122;DHT22;11227;53.046;10.512;2022-12-07T00:31:16;15.20;99.90
22122;DHT22;11227;53.046;10.512;2022-12-07T00:35:18;15.20;99.90
22122;DHT22;11227;53.046;10.512;2022-12-07T00:39:20;15.20;99.90
22122;DHT22;11227;53.046;10.512;2022-12-07T00:43:22;15.20;99.90
22122;DHT22;11227;53.046;10.512;2022-12-07T00:47:23;15.20;99.90
22122;DHT22;11227;53.046;10.512;2022-12-07T00:51:25;15.20;99.90
22122;DHT22;11227;53.046;10.512;2022-12-07T00:55:28;15.20;99.90
22122;DHT22;11227;53.046;10.512;2022-12-07T00:59:33;15.20;99.90
22122;DHT22;11227;53.046;10.512;2022-12-07T01:03:36;15.20;99.90
22122;DHT22;11227;53.046;10.512;2022-12-07T01:07:38;15.20;99.90
22122;DHT22;11227;53.046;10.512;2022-12-07T01:11:40;15.20;99.90
22122;DHT22;11227;53.046;10.512;2022-12-07T01:15:43;15.20;99.90
22122;DHT22;11227;53.046;10.512;2022-12-07T01:19:44;15.20;99.90
22122;DHT22;11227;53.046;10.512;2022-12-07T01:23:47;15.20;99.90
22122;DHT22;11227;53.046;10.512;2022-12-07T01:27:48;15.20;99.90
22122;DHT22;11227;53.046;10.512;2022-12-07T01:31:50;15.20;99.90
22122;DHT22;11227;53.046;10.512;2022-12-07T01:35:52;15.20;99.90
22122;DHT22;11227;53.046;10.512;2022-12-07T01:39:54;15.20;99.90
22122;DHT22;11227;53.046;10.512;2022-12-07T01:48:17;15.20;99.90
22122;DHT22;11227;53.046;10.512;2022-12-07T01:52:27;15.20;99.90
22122;DHT22;11227;53.046;10.512;2022-12-07T01:56:29;15.20;99.90
22122;DHT22;11227;53.046;10.512;2022-12-07T02:00:32;15.20;99.90
22122;DHT22;11227;53.046;10.512;2022-12-07T02:04:35;15.20;99.90
22122;DHT22;11227;53.046;10.512;2022-12-07T02:08:37;15.20;99.90
22122;DHT22;11227;53.046;10.512;2022-12-07T02:12:39;15.20;99.90
22122;DHT22;11227;53.046;10.512;2022-12-07T02:26:02;15.20;99.90
22122;DHT22;11227;53.046;10.512;2022-12-07T02:30:17;15.20;99.90
22122;DHT22;11227;53.046;10.512;2022-12-07T02:38:33;15.20;99.90
22122;DHT22;11227;53.046;10.512;2022-12-07T02:42:40;15.20;99.90
22122;DHT22;11227;53.046;10.512;2022-12-07T02:46:46;15.20;99.90
22122;DHT22;11227;53.046;10.512;2022-12-07T02:50:52;15.20;99.90
22122;DHT22;11227;53.046;10.512;2022-12-07T02:54:54;15.20;99.90
22122;DHT22;11227;53.046;10.512;2022-12-07T03:03:37;15.20;99.90
22122;DHT22;11227;53.046;10.512;2022-12-07T03:12:04;15.20;99.90
22122;DHT22;11227;53.046;10.512;2022-12-07T03:16:25;15.20;99.90
22122;DHT22;11227;53.046;10.512;2022-12-07T03:20:29;15.20;99.90
22122;DHT22;11227;53.046;10.512;2022-12-07T03:24:37;15.20;99.90
22122;DHT22;11227;53.046;10.512;2022-12-07T03:28:44;15.20;99.90
22122;DHT22;11227;53.046;10.512;2022-12-07T03:32:59;15.20;99.90
22122;DHT22;11227;53.046;10.512;2022-12-07T03:37:08;15.20;99.90
22122;DHT22;11227;53.046;10.512;2022-12-07T03:41:31;15.20;99.90
22122;DHT22;11227;53.046;10.512;2022-12-07T03:45:39;15.10;99.90
22122;DHT22;11227;53.046;10.512;2022-12-07T03:49:55;15.20;99.90
22122;DHT22;11227;53.046;10.512;2022-12-07T03:54:07;15.20;99.90
22122;DHT22;11227;53.046;10.512;2022-12-07T03:58:17;15.20;99.90
22122;DHT22;11227;53.046;10.512;2022-12-07T04:02:20;15.20;99.90
22122;DHT22;11227;53.046;10.512;2022-12-07T04:06:22;15.20;99.90
22122;DHT22;11227;53.046;10.512;2022-12-07T04:10:24;15.10;99.90
22122;DHT22;11227;53.046;10.512;2022-12-07T04:14:26;15.20;99.90
22122;DHT22;11227;53.046;10.512;2022-12-07T04:18:28;15.10;99.90
22122;DHT22;11227;53.046;10.512;2022-12-07T04:22:29;15.10;99.90
22122;DHT22;11227;53.046;10.512;2022-12-07T04:26:32;15.20;99.90
22122;DHT22;11227;53.046;10.512;2022-12-07T04:30:34;15.20;99.90
22122;DHT22;11227;53.046;10.512;2022-12-07T04:34:35;15.20;99.90
22122;DHT22;11227;53.046;10.512;2022-12-07T04:38:37;15.20;99.90
22122;DHT22;11227;53.046;10.512;2022-12-07T04:42:39;15.20;99.90
22122;DHT22;11227;53.046;10.512;2022-12-07T04:46:41;15.20;99.90
22122;DHT22;11227;53.046;10.512;2022-12-07T04:50:43;15.20;99.90
22122;DHT22;11227;53.046;10.512;2022-12-07T04:54:47;15.10;99.90
22122;DHT22;11227;53.046;10.512;2022-12-07T04:58:49;15.20;99.90
22122;DHT22;11227;53.046;10.512;2022-12-07T05:02:51;15.20;99.90
22122;DHT22;11227;53.046;10.512;2022-12-07T05:06:52;15.20;99.90
22122;DHT22;11227;53.046;10.512;2022-12-07T05:10:54;15.20;99.90
22122;DHT22;11227;53.046;10.512;2022-12-07T05:14:56;15.20;99.90
22122;DHT22;11227;53.046;10.512;2022-12-07T05:18:58;15.20;99.90
22122;DHT22;11227;53.046;10.512;2022-12-07T05:23:00;15.20;99.90
22122;DHT22;11227;53.046;10.512;2022-12-07T05:27:02;15.20;99.90
22122;DHT22;11227;53.046;10.512;2022-12-07T05:31:03;15.20;99.90
22122;DHT22;11227;53.046;10.512;2022-12-07T05:35:06;15.20;99.90
22122;DHT22;11227;53.046;10.512;2022-12-07T05:39:08;15.20;99.90
22122;DHT22;11227;53.046;10.512;2022-12-07T05:43:10;15.20;99.90
22122;DHT22;11227;53.046;10.512;2022-12-07T05:47:13;15.30;99.90
22122;DHT22;11227;53.046;10.512;2022-12-07T05:51:15;15.20;99.90
22122;DHT22;11227;53.046;10.512;2022-12-07T05:55:17;15.30;99.90
22122;DHT22;11227;53.046;10.512;2022-12-07T05:59:19;15.30;99.90
22122;DHT22;11227;53.046;10.512;2022-12-07T06:03:28;15.30;99.90
22122;DHT22;11227;53.046;10.512;2022-12-07T06:07:30;15.30;99.90
22122;DHT22;11227;53.046;10.512;2022-12-07T06:11:32;15.20;99.90
22122;DHT22;11227;53.046;10.512;2022-12-07T06:15:52;15.30;99.90
22122;DHT22;11227;53.046;10.512;2022-12-07T06:19:54;15.20;99.90
22122;DHT22;11227;53.046;10.512;2022-12-07T06:23:56;15.30;99.90
22122;DHT22;11227;53.046;10.512;2022-12-07T06:27:58;15.30;99.90
22122;DHT22;11227;53.046;10.512;2022-12-07T06:31:59;15.20;99.90
22122;DHT22;11227;53.046;10.512;2022-12-07T06:36:01;15.30;99.90
22122;DHT22;11227;53.046;10.512;2022-12-07T06:40:03;15.20;99.90
22122;DHT22;11227;53.046;10.512;2022-12-07T06:44:06;15.30;99.90
22122;DHT22;11227;53.046;10.512;2022-12-07T06:48:08;15.30;99.90
22122;DHT22;11227;53.046;10.512;2022-12-07T06:52:10;15.30;99.90
22122;DHT22;11227;53.046;10.512;2022-12-07T06:56:12;15.30;99.90
22122;DHT22;11227;53.046;10.512;2022-12-07T07:00:14;15.30;99.90
22122;DHT22;11227;53.046;10.512;2022-12-07T07:04:22;15.30;99.90
22122;DHT22;11227;53.046;10.512;2022-12-07T07:08:25;15.30;99.90
22122;DHT22;11227;53.046;10.512;2022-12-07T07:12:27;15.30;99.90
22122;DHT22;11227;53.046;10.512;2022-12-07T07:16:30;15.30;99.90
22122;DHT22;11227;53.046;10.512;2022-12-07T07:20:32;15.30;99.90
22122;DHT22;11227;53.046;10.512;2022-12-07T07:24:34;15.30;99.90
22122;DHT22;11227;53.046;10.512;2022-12-07T07:28:36;15.30;99.90
22122;DHT22;11227;53.046;10.512;2022-12-07T07:32:38;15.30;99.90
22122;DHT22;11227;53.046;10.512;2022-12-07T07:36:39;15.30;99.90
22122;DHT22;11227;53.046;10.512;2022-12-07T07:40:41;15.30;99.90
22122;DHT22;11227;53.046;10.512;2022-12-07T07:44:43;15.30;99.90
22122;DHT22;11227;53.046;10.512;2022-12-07T07:48:45;15.30;99.90
22122;DHT22;11227;53.046;10.512;2022-12-07T07:52:47;15.30;99.90
22122;DHT22;11227;53.046;10.512;2022-12-07T07:56:49;15.30;99.90
22122;DHT22;11227;53.046;10.512;2022-12-07T08:00:50;15.30;99.90
22122;DHT22;11227;53.046;10.512;2022-12-07T08:04:52;15.30;99.90
22122;DHT22;11227;53.046;10.512;2022-12-07T08:08:54;15.30;99.90
22122;DHT22;11227;53.046;10.512;2022-12-07T08:12:56;15.30;99.90
22122;DHT22;11227;53.046;10.512;2022-12-07T08:17:13;15.30;99.90
22122;DHT22;11227;53.046;10.512;2022-12-07T08:21:15;15.30;99.90
22122;DHT22;11227;53.046;10.512;2022-12-07T08:25:17;15.20;99.90
22122;DHT22;11227;53.046;10.512;2022-12-07T08:29:19;15.30;99.90
22122;DHT22;11227;53.046;10.512;2022-12-07T08:33:22;15.30;99.90
22122;DHT22;11227;53.046;10.512;2022-12-07T08:37:24;15.30;99.90
22122;DHT22;11227;53.046;10.512;2022-12-07T08:41:26;15.30;99.90
22122;DHT22;11227;53.046;10.512;2022-12-07T08:45:27;15.30;99.90
22122;DHT22;11227;53.046;10.512;2022-12-07T08:49:38;15.30;99.90
22122;DHT22;11227;53.046;10.512;2022-12-07T08:53:41;15.30;99.90
22122;DHT22;11227;53.046;10.512;2022-12-07T08:57:44;15.30;99.90
22122;DHT22;11227;53.046;10.512;2022-12-07T09:01:45;15.30;99.90
22122;DHT22;11227;53.046;10.512;2022-12-07T09:05:47;15.30;99.90
22122;DHT22;11227;53.046;10.512;2022-12-07T09:09:49;15.30;99.90
22122;DHT22;11227;53.046;10.512;2022-12-07T09:13:51;15.30;99.90
22122;DHT22;11227;53.046;10.512;2022-12-07T09:17:53;15.30;99.90
22122;DHT22;11227;53.046;10.512;2022-12-07T09:21:55;15.30;99.90
22122;DHT22;11227;53.046;10.512;2022-12-07T09:26:01;15.30;99.90
22122;DHT22;11227;53.046;10.512;2022-12-07T09:30:11;15.30;99.90
22122;DHT22;11227;53.046;10.512;2022-12-07T09:34:13;15.30;99.90
22122;DHT22;11227;53.046;10.512;2022-12-07T09:38:15;15.30;99.90
22122;DHT22;11227;53.046;10.512;2022-12-07T09:46:39;15.30;99.90
22122;DHT22;11227;53.046;10.512;2022-12-07T09:50:42;15.30;99.90
22122;DHT22;11227;53.046;10.512;2022-12-07T09:54:46;15.30;99.90
22122;DHT22;11227;53.046;10.512;2022-12-07T09:58:49;15.30;99.90
22122;DHT22;11227;53.046;10.512;2022-12-07T10:02:58;15.30;99.90
22122;DHT22;11227;53.046;10.512;2022-12-07T10:06:59;15.30;99.90
22122;DHT22;11227;53.046;10.512;2022-12-07T10:11:02;15.30;99.90
22122;DHT22;11227;53.046;10.512;2022-12-07T10:15:05;15.30;99.90
22122;DHT22;11227;53.046;10.512;2022-12-07T10:19:23;15.30;99.90
22122;DHT22;11227;53.046;10.512;2022-12-07T10:23:25;15.30;99.90
22122;DHT22;11227;53.046;10.512;2022-12-07T10:27:31;15.30;99.90
22122;DHT22;11227;53.046;10.512;2022-12-07T10:31:38;15.30;99.90
22122;DHT22;11227;53.046;10.512;2022-12-07T10:35:43;15.30;99.90
22122;DHT22;11227;53.046;10.512;2022-12-07T10:39:55;15.30;99.90
22122;DHT22;11227;53.046;10.512;2022-12-07T10:43:57;15.30;99.90
22122;DHT22;11227;53.046;10.512;2022-12-07T11:00:46;15.30;99.90
22122;DHT22;11227;53.046;10.512;2022-12-07T11:05:27;15.30;99.90
22122;DHT22;11227;53.046;10.512;2022-12-07T11:14:51;15.30;99.90
22122;DHT22;11227;53.046;10.512;2022-12-07T11:23:43;15.30;99.90
22122;DHT22;11227;53.046;10.512;2022-12-07T11:28:06;15.30;99.90
22122;DHT22;11227;53.046;10.512;2022-12-07T11:36:45;15.30;99.90
22122;DHT22;11227;53.046;10.512;2022-12-07T11:40:49;15.30;99.90
22122;DHT22;11227;53.046;10.512;2022-12-07T11:45:02;15.30;99.90
22122;DHT22;11227;53.046;10.512;2022-12-07T11:49:37;15.30;99.90
22122;DHT22;11227;53.046;10.512;2022-12-07T11:53:54;15.30;99.90
22122;DHT22;11227;53.046;10.512;2022-12-07T11:58:20;15.30;99.90
22122;DHT22;11227;53.046;10.512;2022-12-07T12:02:29;15.30;99.90
22122;DHT22;11227;53.046;10.512;2022-12-07T12:06:33;15.30;99.90
22122;DHT22;11227;53.046;10.512;2022-12-07T12:10:57;15.30;99.90
22122;DHT22;11227;53.046;10.512;2022-12-07T12:15:20;15.30;99.90
22122;DHT22;11227;53.046;10.512;2022-12-07T12:23:50;15.30;99.90
22122;DHT22;11227;53.046;10.512;2022-12-07T12:27:58;15.30;99.90
22122;DHT22;11227;53.046;10.512;2022-12-07T12:32:16;15.30;99.90
22122;DHT22;11227;53.046;10.512;2022-12-07T12:36:25;15.30;99.90
22122;DHT22;11227;53.046;10.512;2022-12-07T12:48:37;15.30;99.90
22122;DHT22;11227;53.046;10.512;2022-12-07T13:05:30;15.30;99.90
22122;DHT22;11227;53.046;10.512;2022-12-07T13:09:34;15.20;99.90
22122;DHT22;11227;53.046;10.512;2022-12-07T13:13:36;15.30;99.90
22122;DHT22;11227;53.046;10.512;2022-12-07T13:21:42;15.30;99.90
22122;DHT22;11227;53.046;10.512;2022-12-07T13:30:22;15.30;99.90
22122;DHT22;11227;53.046;10.512;2022-12-07T13:34:31;15.30;99.90
22122;DHT22;11227;53.046;10.512;2022-12-07T13:38:34;15.30;99.90
22122;DHT22;11227;53.046;10.512;2022-12-07T13:42:38;15.30;99.90
22122;DHT22;11227;53.046;10.512;2022-12-07T13:46:49;15.30;99.90
22122;DHT22;11227;53.046;10.512;2022-12-07T13:50:58;15.30;99.90
22122;DHT22;11227;53.046;10.512;2022-12-07T13:55:01;15.30;99.90
22122;DHT22;11227;53.046;10.512;2022-12-07T13:59:05;15.30;99.90
22122;DHT22;11227;53.046;10.512;2022-12-07T14:07:26;15.30;99.90
22122;DHT22;11227;53.046;10.512;2022-12-07T14:11:29;15.30;99.90
22122;DHT22;11227;53.046;10.512;2022-12-07T14:15:34;15.30;99.90
22122;DHT22;11227;53.046;10.512;2022-12-07T14:19:57;15.30;99.90
22122;DHT22;11227;53.046;10.512;2022-12-07T14:28:29;15.30;99.90
22122;DHT22;11227;53.046;10.512;2022-12-07T14:32:32;15.30;99.90
22122;DHT22;11227;53.046;10.512;2022-12-07T14:36:33;15.30;99.90
22122;DHT22;11227;53.046;10.512;2022-12-07T14:40:35;15.20;99.90
22122;DHT22;11227;53.046;10.512;2022-12-07T14:44:37;15.30;99.90
22122;DHT22;11227;53.046;10.512;2022-12-07T14:48:38;15.30;99.90
22122;DHT22;11227;53.046;10.512;2022-12-07T14:53:03;15.30;99.90
22122;DHT22;11227;53.046;10.512;2022-12-07T14:57:23;15.30;99.90
22122;DHT22;11227;53.046;10.512;2022-12-07T15:01:24;15.30;99.90
22122;DHT22;11227;53.046;10.512;2022-12-07T15:05:26;15.20;99.90
22122;DHT22;11227;53.046;10.512;2022-12-07T15:09:28;15.30;99.90
22122;DHT22;11227;53.046;10.512;2022-12-07T15:13:30;15.30;99.90
22122;DHT22;11227;53.046;10.512;2022-12-07T15:17:50;15.30;99.90
22122;DHT22;11227;53.046;10.512;2022-12-07T15:21:52;15.30;99.90
22122;DHT22;11227;53.046;10.512;2022-12-07T15:25:54;15.30;99.90
22122;DHT22;11227;53.046;10.512;2022-12-07T15:29:56;15.30;99.90
22122;DHT22;11227;53.046;10.512;2022-12-07T15:33:58;15.30;99.90
22122;DHT22;11227;53.046;10.512;2022-12-07T15:38:00;15.30;99.90
22122;DHT22;11227;53.046;10.512;2022-12-07T15:42:01;15.30;99.90
22122;DHT22;11227;53.046;10.512;2022-12-07T15:46:03;15.30;99.90
22122;DHT22;11227;53.046;10.512;2022-12-07T15:50:09;15.30;99.90
22122;DHT22;11227;53.046;10.512;2022-12-07T15:54:25;15.30;99.90
22122;DHT22;11227;53.046;10.512;2022-12-07T15:58:27;15.30;99.90
22122;DHT22;11227;53.046;10.512;2022-12-07T16:02:29;15.30;99.90
22122;DHT22;11227;53.046;10.512;2022-12-07T16:06:37;15.30;99.90
22122;DHT22;11227;53.046;10.512;2022-12-07T16:10:39;15.30;99.90
22122;DHT22;11227;53.046;10.512;2022-12-07T16:14:44;15.30;99.90
22122;DHT22;11227;53.046;10.512;2022-12-07T16:18:47;15.40;99.90
22122;DHT22;11227;53.046;10.512;2022-12-07T16:22:51;15.50;99.90
22122;DHT22;11227;53.046;10.512;2022-12-07T16:26:53;15.50;99.90
22122;DHT22;11227;53.046;10.512;2022-12-07T16:31:06;15.60;99.90
22122;DHT22;11227;53.046;10.512;2022-12-07T16:35:09;15.60;99.90
22122;DHT22;11227;53.046;10.512;2022-12-07T16:39:12;15.60;99.90
22122;DHT22;11227;53.046;10.512;2022-12-07T16:43:14;15.60;99.90
22122;DHT22;11227;53.046;10.512;2022-12-07T16:47:15;15.60;99.90
22122;DHT22;11227;53.046;10.512;2022-12-07T16:51:17;15.60;99.90
22122;DHT22;11227;53.046;10.512;2022-12-07T16:55:19;15.60;99.90
22122;DHT22;11227;53.046;10.512;2022-12-07T16:59:21;15.50;99.90
22122;DHT22;11227;53.046;10.512;2022-12-07T17:03:22;15.50;99.90
22122;DHT22;11227;53.046;10.512;2022-12-07T17:07:24;15.50;99.90
22122;DHT22;11227;53.046;10.512;2022-12-07T17:11:28;15.40;99.90
22122;DHT22;11227;53.046;10.512;2022-12-07T17:15:30;15.40;99.90
22122;DHT22;11227;53.046;10.512;2022-12-07T17:19:32;15.30;99.90
22122;DHT22;11227;53.046;10.512;2022-12-07T17:23:34;15.20;99.90
22122;DHT22;11227;53.046;10.512;2022-12-07T17:27:36;15.20;99.90
22122;DHT22;11227;53.046;10.512;2022-12-07T17:31:39;15.10;99.90
22122;DHT22;11227;53.046;10.512;2022-12-07T17:35:45;15.10;99.90
22122;DHT22;11227;53.046;10.512;2022-12-07T17:39:47;15.10;99.90
22122;DHT22;11227;53.046;10.512;2022-12-07T17:43:49;15.00;99.90
22122;DHT22;11227;53.046;10.512;2022-12-07T17:47:51;15.00;99.90
22122;DHT22;11227;53.046;10.512;2022-12-07T17:51:53;15.00;99.90
22122;DHT22;11227;53.046;10.512;2022-12-07T17:56:14;15.00;99.90
22122;DHT22;11227;53.046;10.512;2022-12-07T18:00:31;14.90;99.90
22122;DHT22;11227;53.046;10.512;2022-12-07T18:04:38;14.90;99.90
22122;DHT22;11227;53.046;10.512;2022-12-07T18:08:42;14.90;99.90
22122;DHT22;11227;53.046;10.512;2022-12-07T18:12:44;15.00;99.90
22122;DHT22;11227;53.046;10.512;2022-12-07T18:16:52;15.00;99.90
22122;DHT22;11227;53.046;10.512;2022-12-07T18:20:54;15.10;99.90
22122;DHT22;11227;53.046;10.512;2022-12-07T18:24:56;15.10;99.90
22122;DHT22;11227;53.046;10.512;2022-12-07T18:28:58;15.10;99.90
22122;DHT22;11227;53.046;10.512;2022-12-07T18:33:00;15.20;99.90
22122;DHT22;11227;53.046;10.512;2022-12-07T18:37:02;15.20;99.90
22122;DHT22;11227;53.046;10.512;2022-12-07T18:41:07;15.20;99.90
22122;DHT22;11227;53.046;10.512;2022-12-07T18:45:09;15.20;99.90
22122;DHT22;11227;53.046;10.512;2022-12-07T18:49:12;15.20;99.90
22122;DHT22;11227;53.046;10.512;2022-12-07T18:53:14;15.30;99.90
22122;DHT22;11227;53.046;10.512;2022-12-07T18:57:16;15.30;99.90
22122;DHT22;11227;53.046;10.512;2022-12-07T19:01:18;15.30;99.90
22122;DHT22;11227;53.046;10.512;2022-12-07T19:05:20;15.30;99.90
22122;DHT22;11227;53.046;10.512;2022-12-07T19:09:22;15.30;99.90
22122;DHT22;11227;53.046;10.512;2022-12-07T19:13:23;15.30;99.90
22122;DHT22;11227;53.046;10.512;2022-12-07T19:17:25;15.30;99.90
22122;DHT22;11227;53.046;10.512;2022-12-07T19:21:27;15.30;99.90
22122;DHT22;11227;53.046;10.512;2022-12-07T19:25:32;15.30;99.90
22122;DHT22;11227;53.046;10.512;2022-12-07T19:29:37;15.30;99.90
22122;DHT22;11227;53.046;10.512;2022-12-07T19:33:40;15.30;99.90
22122;DHT22;11227;53.046;10.512;2022-12-07T19:37:42;15.30;99.90
22122;DHT22;11227;53.046;10.512;2022-12-07T19:41:45;15.30;99.90
22122;DHT22;11227;53.046;10.512;2022-12-07T19:45:46;15.30;99.90
22122;DHT22;11227;53.046;10.512;2022-12-07T19:49:48;15.40;99.90
22122;DHT22;11227;53.046;10.512;2022-12-07T19:53:50;15.30;99.90
22122;DHT22;11227;53.046;10.512;2022-12-07T19:57:51;15.30;99.90
22122;DHT22;11227;53.046;10.512;2022-12-07T20:01:53;15.20;99.90
22122;DHT22;11227;53.046;10.512;2022-12-07T20:05:55;15.20;99.90
22122;DHT22;11227;53.046;10.512;2022-12-07T20:09:57;15.10;99.90
22122;DHT22;11227;53.046;10.512;2022-12-07T20:14:00;15.10;99.90
22122;DHT22;11227;53.046;10.512;2022-12-07T20:18:02;15.10;99.90
22122;DHT22;11227;53.046;10.512;2022-12-07T20:22:04;15.10;99.90
22122;DHT22;11227;53.046;10.512;2022-12-07T20:26:10;15.00;99.90
22122;DHT22;11227;53.046;10.512;2022-12-07T20:30:13;15.00;99.90
22122;DHT22;11227;53.046;10.512;2022-12-07T20:34:14;15.00;99.90
22122;DHT22;11227;53.046;10.512;2022-12-07T20:38:16;15.00;99.90
22122;DHT22;11227;53.046;10.512;2022-12-07T20:42:18;15.00;99.90
22122;DHT22;11227;53.046;10.512;2022-12-07T20:46:38;14.90;99.90
22122;DHT22;11227;53.046;10.512;2022-12-07T20:50:41;14.90;99.90
22122;DHT22;11227;53.046;10.512;2022-12-07T20:54:43;14.90;99.90
22122;DHT22;11227;53.046;10.512;2022-12-07T20:58:44;14.90;99.90
22122;DHT22;11227;53.046;10.512;2022-12-07T21:02:46;14.90;99.90
22122;DHT22;11227;53.046;10.512;2022-12-07T21:06:48;14.90;99.90
22122;DHT22;11227;53.046;10.512;2022-12-07T21:10:50;14.90;99.90
22122;DHT22;11227;53.046;10.512;2022-12-07T21:14:52;14.90;99.90
22122;DHT22;11227;53.046;10.512;2022-12-07T21:18:55;14.90;99.90
22122;DHT22;11227;53.046;10.512;2022-12-07T21:22:58;14.90;99.90
22122;DHT22;11227;53.046;10.512;2022-12-07T21:26:59;14.80;99.90
22122;DHT22;11227;53.046;10.512;2022-12-07T21:31:01;14.80;99.90
22122;DHT22;11227;53.046;10.512;2022-12-07T21:35:14;14.80;99.90
22122;DHT22;11227;53.046;10.512;2022-12-07T21:39:16;14.80;1.00
22122;DHT22;11227;53.046;10.512;2022-12-07T21:43:18;14.80;1.00
22122;DHT22;11227;53.046;10.512;2022-12-07T21:47:19;14.80;1.00
22122;DHT22;11227;53.046;10.512;2022-12-07T21:51:22;14.80;1.00
22122;DHT22;11227;53.046;10.512;2022-12-07T21:55:24;14.80;1.00
22122;DHT22;11227;53.046;10.512;2022-12-07T21:59:26;14.80;1.00
22122;DHT22;11227;53.046;10.512;2022-12-07T22:03:27;14.70;1.00
22122;DHT22;11227;53.046;10.512;2022-12-07T22:07:29;14.80;1.00
22122;DHT22;11227;53.046;10.512;2022-12-07T22:11:31;14.80;1.00
22122;DHT22;11227;53.046;10.512;2022-12-07T22:15:33;14.80;1.00
22122;DHT22;11227;53.046;10.512;2022-12-07T22:19:35;14.70;1.00
22122;DHT22;11227;53.046;10.512;2022-12-07T22:23:37;14.70;1.00
22122;DHT22;11227;53.046;10.512;2022-12-07T22:27:39;14.70;1.00
22122;DHT22;11227;53.046;10.512;2022-12-07T22:31:41;14.80;1.00
22122;DHT22;11227;53.046;10.512;2022-12-07T22:35:43;14.70;1.00
22122;DHT22;11227;53.046;10.512;2022-12-07T22:39:52;14.70;1.00
22122;DHT22;11227;53.046;10.512;2022-12-07T22:43:54;14.70;1.00
22122;DHT22;11227;53.046;10.512;2022-12-07T22:47:56;14.70;1.00
22122;DHT22;11227;53.046;10.512;2022-12-07T22:51:57;14.70;1.00
22122;DHT22;11227;53.046;10.512;2022-12-07T22:55:59;14.70;1.00
22122;DHT22;11227;53.046;10.512;2022-12-07T23:00:01;14.70;1.00
22122;DHT22;11227;53.046;10.512;2022-12-07T23:04:03;14.70;1.00
22122;DHT22;11227;53.046;10.512;2022-12-07T23:08:05;14.70;1.00
22122;DHT22;11227;53.046;10.512;2022-12-07T23:12:08;14.70;1.00
22122;DHT22;11227;53.046;10.512;2022-12-07T23:16:29;14.70;1.00
22122;DHT22;11227;53.046;10.512;2022-12-07T23:20:31;14.70;1.00
22122;DHT22;11227;53.046;10.512;2022-12-07T23:24:33;14.70;1.00
22122;DHT22;11227;53.046;10.512;2022-12-07T23:28:35;14.70;1.00
22122;DHT22;11227;53.046;10.512;2022-12-07T23:32:37;14.70;1.00
22122;DHT22;11227;53.046;10.512;2022-12-07T23:36:39;14.70;1.00
22122;DHT22;11227;53.046;10.512;2022-12-07T23:40:41;14.70;1.00
22122;DHT22;11227;53.046;10.512;2022-12-07T23:44:42;14.70;1.00
22122;DHT22;11227;53.046;10.512;2022-12-07T23:48:45;14.70;1.00
22122;DHT22;11227;53.046;10.512;2022-12-07T23:52:47;14.70;1.00
22122;DHT22;11227;53.046;10.512;2022-12-07T23:56:49;14.70;1.00
